createdAt,value
2023-04-16T00:02:28.077Z,4.80
2023-04-16T00:05:15.171Z,5.75
2023-04-16T00:08:02.374Z,4.60
2023-04-16T00:10:49.222Z,5.22
2023-04-16T00:13:36.091Z,5.22
2023-04-16T00:16:23.046Z,5.07
2023-04-16T00:19:10.127Z,5.88
2023-04-16T00:21:57.224Z,5.72
2023-04-16T00:24:44.090Z,5.22
2023-04-16T00:27:30.957Z,4.40
2023-04-16T00:30:17.881Z,4.85
2023-04-16T00:33:04.852Z,6.03
2023-04-16T00:35:51.723Z,4.35
2023-04-16T00:38:38.574Z,5.43
2023-04-16T00:41:26.254Z,4.95
2023-04-16T00:44:13.089Z,5.18
2023-04-16T00:46:59.960Z,5.65
2023-04-16T00:49:46.960Z,4.63
2023-04-16T00:52:34.697Z,5.25
2023-04-16T00:55:22.192Z,6.53
2023-04-16T00:58:09.045Z,5.97
2023-04-16T01:00:56.611Z,6.15
2023-04-16T01:03:46.801Z,5.03
2023-04-16T01:06:33.785Z,4.70
2023-04-16T01:09:20.859Z,6.40
2023-04-16T01:12:07.721Z,4.75
2023-04-16T01:14:54.678Z,4.72
2023-04-16T01:17:41.561Z,4.60
2023-04-16T01:20:29.452Z,4.70
2023-04-16T01:23:18.556Z,5.70
2023-04-16T01:28:52.170Z,3.88
2023-04-16T01:31:39.050Z,5.75
2023-04-16T01:34:25.920Z,5.53
2023-04-16T01:37:12.908Z,4.68
2023-04-16T01:39:59.749Z,4.97
2023-04-16T01:42:46.612Z,5.82
2023-04-16T01:45:34.404Z,6.50
2023-04-16T01:48:21.261Z,5.07
2023-04-16T01:51:08.235Z,4.90
2023-04-16T01:53:55.362Z,5.38
2023-04-16T01:56:42.206Z,5.57
2023-04-16T01:59:29.359Z,5.88
2023-04-16T02:02:16.642Z,4.93
2023-04-16T02:05:03.858Z,4.93
2023-04-16T02:07:50.857Z,5.00
2023-04-16T02:10:37.656Z,5.07
2023-04-16T02:13:26.086Z,4.78
2023-04-16T02:16:12.930Z,4.97
2023-04-16T02:18:59.768Z,5.30
2023-04-16T02:21:46.691Z,4.70
2023-04-16T02:24:33.524Z,4.88
2023-04-16T02:27:20.503Z,4.50
2023-04-16T02:30:08.065Z,4.30
2023-04-16T02:32:55.029Z,4.95
2023-04-16T02:35:42.008Z,5.05
2023-04-16T02:38:28.857Z,4.93
2023-04-16T02:41:15.922Z,4.95
2023-04-16T02:44:02.720Z,5.68
2023-04-16T02:46:49.620Z,6.28
2023-04-16T02:49:36.564Z,5.30
2023-04-16T02:52:23.454Z,4.10
2023-04-16T02:55:11.159Z,5.55
2023-04-16T02:57:58.040Z,3.83
2023-04-16T03:00:45.018Z,3.70
2023-04-16T03:03:31.872Z,4.63
2023-04-16T03:06:18.713Z,4.10
2023-04-16T03:09:05.749Z,4.93
2023-04-16T03:11:52.601Z,5.18
2023-04-16T03:14:39.492Z,4.82
2023-04-16T03:17:26.328Z,5.47
2023-04-16T03:20:14.469Z,4.43
2023-04-16T03:23:01.527Z,5.07
2023-04-16T03:25:48.387Z,4.70
2023-04-16T03:28:35.340Z,4.15
2023-04-16T03:31:24.477Z,5.65
2023-04-16T03:36:58.446Z,4.60
2023-04-16T03:39:45.543Z,4.63
2023-04-16T03:42:32.367Z,3.55
2023-04-16T03:45:19.224Z,5.10
2023-04-16T03:48:06.480Z,4.03
2023-04-16T03:50:53.293Z,4.53
2023-04-16T03:53:40.140Z,5.38
2023-04-16T03:56:26.975Z,4.88
2023-04-16T03:59:13.819Z,5.35
2023-04-16T04:02:00.870Z,5.22
2023-04-16T04:04:48.326Z,5.85
2023-04-16T04:07:35.333Z,5.32
2023-04-16T04:10:22.195Z,5.15
2023-04-16T04:13:09.574Z,4.57
2023-04-16T04:15:56.612Z,4.38
2023-04-16T04:18:44.575Z,4.53
2023-04-16T04:21:32.007Z,6.10
2023-04-16T04:24:18.871Z,5.60
2023-04-16T04:27:05.801Z,3.38
2023-04-16T04:29:53.192Z,5.03
2023-04-16T04:32:40.120Z,5.65
2023-04-16T04:35:27.092Z,3.38
2023-04-16T04:38:16.146Z,4.57
2023-04-16T04:43:50.209Z,4.18
2023-04-16T04:46:37.085Z,3.95
2023-04-16T04:49:23.934Z,4.43
2023-04-16T04:52:11.567Z,3.33
2023-04-16T04:54:58.482Z,3.97
2023-04-16T04:57:45.422Z,5.38
2023-04-16T05:00:33.508Z,3.80
2023-04-16T05:03:21.840Z,5.00
2023-04-16T05:06:08.844Z,4.80
2023-04-16T05:08:55.682Z,4.80
2023-04-16T05:11:42.478Z,4.40
2023-04-16T05:14:29.346Z,3.92
2023-04-16T05:17:16.428Z,3.55
2023-04-16T05:20:03.364Z,5.15
2023-04-16T05:22:51.132Z,4.30
2023-04-16T05:25:37.983Z,4.05
2023-04-16T05:28:24.779Z,5.32
2023-04-16T05:31:11.765Z,4.60
2023-04-16T05:33:58.642Z,4.43
2023-04-16T05:36:45.972Z,3.75
2023-04-16T05:39:32.802Z,4.85
2023-04-16T05:42:19.729Z,4.45
2023-04-16T05:45:07.221Z,4.22
2023-04-16T05:47:54.171Z,4.47
2023-04-16T05:50:41.024Z,3.47
2023-04-16T05:53:27.837Z,4.63
2023-04-16T05:56:14.718Z,4.38
2023-04-16T05:59:01.639Z,4.35
2023-04-16T06:01:48.531Z,4.65
2023-04-16T06:04:35.985Z,4.60
2023-04-16T06:07:22.859Z,4.57
2023-04-16T06:10:12.517Z,4.20
2023-04-16T06:12:59.474Z,4.30
2023-04-16T06:15:46.819Z,3.35
2023-04-16T06:18:33.668Z,4.25
2023-04-16T06:21:20.810Z,5.03
2023-04-16T06:24:07.665Z,4.25
2023-04-16T06:26:54.730Z,4.70
2023-04-16T06:29:42.024Z,3.53
2023-04-16T06:32:29.045Z,5.28
2023-04-16T06:35:16.081Z,4.18
2023-04-16T06:38:02.875Z,5.20
2023-04-16T06:40:49.972Z,4.57
2023-04-16T06:43:36.935Z,4.25
2023-04-16T06:46:23.838Z,4.32
2023-04-16T06:49:10.889Z,4.43
2023-04-16T06:51:57.973Z,5.53
2023-04-16T06:54:44.869Z,3.67
2023-04-16T06:57:31.722Z,4.03
2023-04-16T07:00:18.936Z,4.22
2023-04-16T07:03:06.252Z,4.68
2023-04-16T07:05:53.282Z,5.45
2023-04-16T07:08:40.102Z,4.75
2023-04-16T07:11:27.431Z,4.22
2023-04-16T07:14:14.337Z,3.95
2023-04-16T07:17:01.198Z,4.32
2023-04-16T07:19:48.168Z,4.32
2023-04-16T07:22:35.150Z,3.92
2023-04-16T07:25:22.005Z,4.93
2023-04-16T07:28:08.868Z,5.28
2023-04-16T07:30:55.862Z,4.95
2023-04-16T07:33:42.737Z,4.10
2023-04-16T07:36:29.582Z,4.75
2023-04-16T07:39:16.447Z,4.88
2023-04-16T07:42:03.423Z,5.22
2023-04-16T07:44:50.278Z,4.20
2023-04-16T07:47:37.309Z,3.55
2023-04-16T07:50:25.093Z,3.40
2023-04-16T07:53:12.027Z,4.18
2023-04-16T07:55:58.895Z,5.40
2023-04-16T07:58:45.760Z,4.18
2023-04-16T08:01:32.929Z,4.57
2023-04-16T08:04:25.055Z,4.00
2023-04-16T08:07:12.764Z,5.03
2023-04-16T08:09:59.664Z,4.95
2023-04-16T08:12:46.536Z,5.03
2023-04-16T08:15:33.449Z,4.85
2023-04-16T08:18:20.334Z,5.00
2023-04-16T08:21:07.210Z,4.53
2023-04-16T08:23:54.300Z,5.07
2023-04-16T08:26:41.222Z,4.40
2023-04-16T08:29:28.409Z,4.70
2023-04-16T08:32:15.783Z,5.43
2023-04-16T08:35:02.663Z,4.50
2023-04-16T08:37:49.514Z,5.80
2023-04-16T08:40:40.024Z,5.95
2023-04-16T08:43:27.106Z,5.93
2023-04-16T08:46:17.774Z,5.95
2023-04-16T08:49:08.369Z,4.95
2023-04-16T08:51:56.330Z,5.65
2023-04-16T08:55:06.830Z,5.40
2023-04-16T08:58:07.842Z,5.75
2023-04-16T09:00:55.931Z,5.78
2023-04-16T09:03:42.978Z,6.85
2023-04-16T09:06:31.464Z,7.53
2023-04-16T09:09:18.355Z,8.43
2023-04-16T09:12:05.401Z,7.65
2023-04-16T09:14:52.724Z,8.23
2023-04-16T09:17:40.085Z,7.43
2023-04-16T09:20:27.016Z,7.32
2023-04-16T09:23:13.872Z,7.53
2023-04-16T09:26:00.915Z,8.93
2023-04-16T09:28:49.466Z,6.88
2023-04-16T09:31:36.778Z,7.60
2023-04-16T09:34:23.814Z,7.53
2023-04-16T09:37:20.040Z,7.32
2023-04-16T09:40:07.544Z,7.30
2023-04-16T09:42:57.586Z,7.47
2023-04-16T09:45:54.553Z,7.65
2023-04-16T09:48:41.438Z,6.45
2023-04-16T09:51:37.201Z,7.38
2023-04-16T09:54:26.172Z,8.10
2023-04-16T09:57:13.135Z,8.35
2023-04-16T10:00:08.959Z,8.48
2023-04-16T10:03:06.746Z,7.95
2023-04-16T10:05:53.969Z,7.63
2023-04-16T10:08:44.868Z,7.20
2023-04-16T10:11:31.865Z,8.20
2023-04-16T10:14:18.755Z,6.72
2023-04-16T10:17:06.559Z,7.57
2023-04-16T10:19:54.665Z,7.00
2023-04-16T10:22:42.094Z,7.80
2023-04-16T10:25:29.076Z,6.35
2023-04-16T10:28:16.648Z,7.88
2023-04-16T10:31:07.326Z,6.82
2023-04-16T10:33:54.751Z,7.15
2023-04-16T10:36:42.065Z,6.53
2023-04-16T10:39:32.985Z,6.97
2023-04-16T10:42:19.841Z,5.70
2023-04-16T10:45:07.446Z,6.07
2023-04-16T10:47:57.572Z,6.30
2023-04-16T10:50:54.713Z,5.82
2023-04-16T10:53:41.796Z,5.75
2023-04-16T10:56:32.317Z,6.28
2023-04-16T10:59:21.122Z,6.30
2023-04-16T11:02:13.290Z,4.85
2023-04-16T11:05:01.882Z,7.38
2023-04-16T11:07:49.857Z,6.05
2023-04-16T11:10:39.470Z,6.03
2023-04-16T11:13:26.515Z,6.95
2023-04-16T11:16:14.559Z,6.45
2023-04-16T11:19:01.856Z,6.43
2023-04-16T11:21:49.272Z,6.38
2023-04-16T11:24:36.223Z,5.50
2023-04-16T11:27:24.250Z,5.20
2023-04-16T11:30:11.380Z,4.70
2023-04-16T11:32:58.348Z,5.47
2023-04-16T11:35:46.061Z,5.65
2023-04-16T11:38:37.260Z,6.28
2023-04-16T11:41:24.081Z,5.60
2023-04-16T11:44:21.872Z,5.35
2023-04-16T11:47:08.761Z,5.55
2023-04-16T11:49:55.630Z,5.50
2023-04-16T11:52:42.627Z,5.32
2023-04-16T11:55:29.821Z,5.60
2023-04-16T11:58:16.664Z,5.45
2023-04-16T12:01:04.794Z,6.20
2023-04-16T12:04:02.351Z,5.20
2023-04-16T12:07:10.029Z,3.85
2023-04-16T12:10:08.136Z,5.07
2023-04-16T12:12:55.992Z,5.25
2023-04-16T12:15:52.621Z,6.05
2023-04-16T12:18:58.913Z,4.72
2023-04-16T12:21:47.268Z,5.38
2023-04-16T12:24:36.899Z,5.50
2023-04-16T12:27:26.630Z,4.90
2023-04-16T12:30:20.768Z,5.90
2023-04-16T12:33:15.361Z,5.85
2023-04-16T12:36:17.097Z,5.05
2023-04-16T12:39:05.090Z,4.82
2023-04-16T12:41:51.948Z,5.35
2023-04-16T12:44:38.838Z,3.83
2023-04-16T12:47:25.769Z,4.60
2023-04-16T12:50:12.717Z,4.35
2023-04-16T12:52:59.738Z,6.18
2023-04-16T12:55:46.615Z,5.75
2023-04-16T12:58:34.441Z,4.50
2023-04-16T13:01:21.582Z,6.03
2023-04-16T13:04:09.340Z,4.82
2023-04-16T13:06:56.310Z,5.43
2023-04-16T13:09:43.745Z,5.65
2023-04-16T13:12:31.017Z,4.28
2023-04-16T13:15:18.063Z,4.63
2023-04-16T13:18:05.026Z,3.67
2023-04-16T13:20:52.155Z,5.35
2023-04-16T13:23:39.025Z,4.72
2023-04-16T13:26:26.603Z,5.25
2023-04-16T13:29:13.662Z,6.22
2023-04-16T13:32:00.747Z,5.47
2023-04-16T13:34:47.683Z,5.55
2023-04-16T13:37:34.784Z,5.40
2023-04-16T13:40:21.745Z,6.53
2023-04-16T13:43:08.646Z,5.30
2023-04-16T13:45:55.910Z,5.28
2023-04-16T13:48:42.828Z,5.32
2023-04-16T13:51:29.741Z,6.22
2023-04-16T13:54:16.639Z,5.80
2023-04-16T13:57:03.625Z,6.18
2023-04-16T13:59:50.519Z,5.55
2023-04-16T14:02:37.493Z,5.63
2023-04-16T14:05:26.990Z,5.10
2023-04-16T14:08:16.571Z,4.93
2023-04-16T14:11:03.589Z,5.63
2023-04-16T14:13:50.481Z,5.35
2023-04-16T14:16:37.475Z,4.95
2023-04-16T14:19:24.442Z,4.88
2023-04-16T14:22:11.280Z,5.63
2023-04-16T14:24:58.151Z,5.47
2023-04-16T14:27:45.035Z,4.72
2023-04-16T14:30:31.860Z,5.43
2023-04-16T14:33:18.772Z,4.43
2023-04-16T14:36:06.069Z,5.05
2023-04-16T14:38:52.907Z,4.88
2023-04-16T14:41:39.802Z,4.40
2023-04-16T14:44:26.690Z,4.93
2023-04-16T14:47:13.589Z,5.28
2023-04-16T14:50:01.649Z,4.63
2023-04-16T14:52:48.513Z,6.20
2023-04-16T14:55:35.371Z,4.15
2023-04-16T14:58:23.013Z,6.05
2023-04-16T15:01:10.094Z,4.70
2023-04-16T15:03:57.924Z,4.72
2023-04-16T15:06:46.665Z,5.18
2023-04-16T15:09:34.573Z,5.13
2023-04-16T15:12:21.484Z,5.50
2023-04-16T15:15:09.124Z,4.38
2023-04-16T15:17:57.010Z,5.47
2023-04-16T15:20:43.953Z,4.38
2023-04-16T15:23:31.035Z,4.13
2023-04-16T15:26:18.283Z,5.32
2023-04-16T15:29:05.257Z,4.95
2023-04-16T15:31:52.127Z,4.45
2023-04-16T15:34:39.106Z,5.15
2023-04-16T15:37:26.005Z,5.10
2023-04-16T15:40:12.953Z,4.97
2023-04-16T15:42:59.904Z,5.97
2023-04-16T15:45:46.740Z,7.93
2023-04-16T15:48:33.652Z,6.03
2023-04-16T15:51:20.578Z,6.78
2023-04-16T15:54:07.558Z,6.38
2023-04-16T15:56:54.531Z,5.60
2023-04-16T15:59:41.432Z,6.45
2023-04-16T16:02:30.548Z,6.55
2023-04-16T16:05:17.543Z,6.45
2023-04-16T16:08:04.866Z,6.28
2023-04-16T16:10:52.274Z,7.03
2023-04-16T16:13:39.166Z,6.18
2023-04-16T16:16:26.241Z,7.18
2023-04-16T16:19:13.265Z,6.63
2023-04-16T16:22:00.188Z,6.50
2023-04-16T16:24:50.919Z,6.43
2023-04-16T16:27:37.792Z,5.43
2023-04-16T16:30:25.106Z,11.43
2023-04-16T16:33:11.918Z,5.78
2023-04-16T16:35:58.768Z,5.15
2023-04-16T16:38:47.370Z,5.50
2023-04-16T16:41:37.609Z,6.25
2023-04-16T16:44:24.561Z,6.60
2023-04-16T16:47:11.370Z,5.90
2023-04-16T16:49:59.624Z,6.22
2023-04-16T16:52:48.262Z,5.60
2023-04-16T16:55:35.755Z,5.03
2023-04-16T16:58:23.800Z,5.05
2023-04-16T17:01:10.727Z,5.53
2023-04-16T17:03:57.719Z,4.65
2023-04-16T17:06:44.707Z,4.45
2023-04-16T17:09:31.907Z,5.50
2023-04-16T17:12:18.759Z,3.72
2023-04-16T17:15:05.933Z,3.83
2023-04-16T17:17:53.798Z,3.95
2023-04-16T17:20:41.182Z,4.22
2023-04-16T17:23:28.034Z,3.85
2023-04-16T17:26:14.953Z,3.58
2023-04-16T17:29:01.801Z,5.03
2023-04-16T17:31:48.687Z,4.40
2023-04-16T17:34:35.708Z,4.47
2023-04-16T17:37:23.126Z,3.88
2023-04-16T17:40:10.240Z,5.35
2023-04-16T17:42:57.090Z,5.47
2023-04-16T17:45:43.977Z,3.83
2023-04-16T17:48:31.152Z,3.38
2023-04-16T17:51:18.167Z,3.72
2023-04-16T17:54:05.307Z,4.75
2023-04-16T17:56:52.223Z,3.45
2023-04-16T17:59:39.107Z,4.25
2023-04-16T18:02:26.206Z,4.25
2023-04-16T18:05:13.594Z,4.60
2023-04-16T18:08:00.542Z,3.97
2023-04-16T18:10:47.356Z,4.78
2023-04-16T18:13:34.859Z,4.63
2023-04-16T18:16:22.598Z,4.45
2023-04-16T18:19:09.556Z,2.83
2023-04-16T18:21:56.469Z,2.20
2023-04-16T18:24:43.333Z,2.88
2023-04-16T18:27:30.206Z,3.92
2023-04-16T18:30:23.469Z,3.10
2023-04-16T18:36:03.765Z,2.45
2023-04-16T18:39:01.110Z,4.25
2023-04-16T18:41:49.835Z,3.53
2023-04-16T18:44:36.685Z,3.20
2023-04-16T18:47:23.853Z,2.40
2023-04-16T18:50:10.927Z,2.92
2023-04-16T18:52:57.756Z,3.10
2023-04-16T18:55:44.666Z,5.05
2023-04-16T18:58:31.556Z,2.92
2023-04-16T19:01:18.614Z,2.65
2023-04-16T19:04:05.743Z,2.63
2023-04-16T19:06:52.617Z,2.75
2023-04-16T19:09:39.476Z,3.75
2023-04-16T19:12:26.394Z,3.35
2023-04-16T19:15:14.788Z,2.72
2023-04-16T19:18:02.017Z,2.83
2023-04-16T19:20:48.982Z,4.18
2023-04-16T19:23:36.431Z,3.05
2023-04-16T19:26:23.382Z,3.22
2023-04-16T19:29:10.556Z,3.40
2023-04-16T19:31:57.636Z,3.20
2023-04-16T19:34:44.595Z,3.20
2023-04-16T19:37:31.544Z,3.53
2023-04-16T19:40:18.403Z,3.78
2023-04-16T19:43:05.410Z,3.53
2023-04-16T19:45:53.681Z,3.83
2023-04-16T19:48:40.898Z,3.85
2023-04-16T19:51:27.842Z,3.38
2023-04-16T19:54:14.740Z,3.88
2023-04-16T19:57:01.673Z,3.92
2023-04-16T19:59:48.589Z,3.70
2023-04-16T20:02:36.098Z,2.88
2023-04-16T20:05:23.004Z,3.72
2023-04-16T20:08:09.870Z,3.35
2023-04-16T20:10:56.858Z,3.58
2023-04-16T20:13:47.386Z,3.63
2023-04-16T20:16:35.123Z,4.75
2023-04-16T20:19:22.157Z,5.03
2023-04-16T20:22:09.037Z,3.55
2023-04-16T20:24:56.332Z,4.53
2023-04-16T20:27:43.178Z,3.13
2023-04-16T20:30:30.995Z,4.60
2023-04-16T20:33:17.920Z,5.10
2023-04-16T20:36:06.090Z,4.50
2023-04-16T20:38:53.982Z,5.53
2023-04-16T20:41:44.121Z,4.30
2023-04-16T20:44:40.113Z,4.15
2023-04-16T20:47:27.448Z,4.22
2023-04-16T20:50:14.404Z,4.07
2023-04-16T20:53:01.255Z,4.32
2023-04-16T20:55:48.062Z,5.43
2023-04-16T20:58:35.433Z,4.80
2023-04-16T21:01:22.366Z,4.57
2023-04-16T21:04:09.374Z,3.63
2023-04-16T21:06:56.653Z,5.13
2023-04-16T21:09:43.466Z,4.43
2023-04-16T21:12:30.513Z,4.43
2023-04-16T21:15:17.360Z,5.03
2023-04-16T21:18:04.350Z,6.07
2023-04-16T21:20:51.296Z,4.38
2023-04-16T21:23:38.143Z,3.58
2023-04-16T21:26:25.079Z,5.18
2023-04-16T21:29:12.142Z,4.65
2023-04-16T21:31:59.316Z,3.80
2023-04-16T21:34:46.326Z,5.07
2023-04-16T21:37:33.857Z,5.40
2023-04-16T21:40:20.824Z,3.92
2023-04-16T21:43:07.684Z,4.63
2023-04-16T21:45:54.876Z,4.80
2023-04-16T21:48:41.746Z,4.28
2023-04-16T21:51:31.323Z,4.53
2023-04-16T21:54:20.142Z,4.70
2023-04-16T21:57:06.998Z,4.47
2023-04-16T21:59:53.858Z,4.57
2023-04-16T22:02:42.727Z,4.00
2023-04-16T22:05:31.723Z,6.25
2023-04-16T22:08:24.909Z,4.78
2023-04-16T22:11:12.231Z,5.55
2023-04-16T22:13:59.099Z,4.05
2023-04-16T22:16:46.241Z,4.45
2023-04-16T22:19:34.807Z,4.10
2023-04-16T22:22:22.149Z,4.20
2023-04-16T22:25:09.814Z,4.93
2023-04-16T22:27:56.752Z,4.53
2023-04-16T22:30:43.574Z,3.88
2023-04-16T22:33:31.067Z,4.38
2023-04-16T22:36:17.898Z,4.68
2023-04-16T22:39:08.520Z,5.43
2023-04-16T22:41:56.366Z,5.82
2023-04-16T22:44:43.330Z,5.18
2023-04-16T22:47:30.289Z,4.50
2023-04-16T22:50:17.491Z,4.57
2023-04-16T22:53:04.351Z,5.10
2023-04-16T22:55:51.419Z,5.25
2023-04-16T22:58:38.623Z,5.25
2023-04-16T23:01:25.559Z,4.47
2023-04-16T23:04:12.530Z,4.93
2023-04-16T23:06:59.462Z,5.43
2023-04-16T23:09:46.306Z,5.78
2023-04-16T23:12:33.284Z,5.32
2023-04-16T23:15:20.169Z,4.68
2023-04-16T23:18:07.644Z,5.80
2023-04-16T23:20:54.559Z,5.80
2023-04-16T23:23:41.477Z,5.38
2023-04-16T23:26:28.326Z,5.03
2023-04-16T23:29:15.217Z,6.00
2023-04-16T23:32:02.065Z,5.43
2023-04-16T23:34:48.879Z,5.40
2023-04-16T23:37:35.730Z,4.38
2023-04-16T23:40:22.576Z,5.50
2023-04-16T23:43:09.476Z,5.63
2023-04-16T23:45:56.498Z,5.88
2023-04-16T23:48:43.415Z,4.63
2023-04-16T23:51:31.540Z,5.47
2023-04-16T23:54:18.948Z,5.47
2023-04-16T23:57:05.842Z,5.53
2023-04-16T23:59:52.911Z,5.47
